Time;durP1;ratioP1;P1;durP2;ratioP2;P2;SDS_P1;SDS_P2;PMS_P1;PMS_P2;Temp;Humidity;BMP_temperature;BMP_pressure;BME280_temperature;BME280_humidity;BME280_pressure;Samples;Min_cycle;Max_cycle;Signal;HPM_P1;HPM_P2
2023/01/11 00:00:12;;;;;;;6.82;3.60;;;9.80;99.90;;;;;;5101726;28;20544;-62
2023/01/11 00:02:37;;;;;;;4.53;2.60;;;9.90;99.90;;;;;;5106597;28;20022;-62
2023/01/11 00:05:04;;;;;;;5.25;2.83;;;9.90;99.90;;;;;;5108076;28;20019;-63
2023/01/11 00:07:30;;;;;;;6.18;3.20;;;9.90;99.90;;;;;;5100978;28;20020;-62
2023/01/11 00:09:56;;;;;;;3.55;2.55;;;9.90;99.90;;;;;;5105049;28;20027;-62
2023/01/11 00:12:21;;;;;;;5.28;2.75;;;9.90;99.90;;;;;;5100743;28;20476;-62
2023/01/11 00:14:47;;;;;;;4.55;2.80;;;10.00;99.90;;;;;;5086099;28;20499;-62
2023/01/11 00:17:12;;;;;;;3.83;2.63;;;10.00;99.90;;;;;;5086602;28;20016;-62
2023/01/11 00:19:38;;;;;;;3.33;2.70;;;10.00;99.90;;;;;;5106162;28;20024;-62
2023/01/11 00:22:03;;;;;;;4.60;2.67;;;10.00;99.90;;;;;;5117986;27;20027;-62
2023/01/11 00:24:29;;;;;;;4.60;3.40;;;10.10;99.90;;;;;;5106494;28;20823;-62
2023/01/11 00:26:55;;;;;;;7.28;2.88;;;10.00;99.90;;;;;;5108162;28;20067;-62
2023/01/11 00:29:20;;;;;;;4.05;2.35;;;10.00;99.90;;;;;;5120279;27;20555;-62
2023/01/11 00:31:46;;;;;;;4.95;3.05;;;10.00;99.90;;;;;;5084151;28;20036;-62
2023/01/11 00:34:11;;;;;;;5.28;3.08;;;10.10;99.90;;;;;;5103864;28;20821;-63
2023/01/11 00:36:37;;;;;;;6.97;2.83;;;10.10;99.90;;;;;;5083099;28;20027;-62
2023/01/11 00:39:02;;;;;;;4.95;3.10;;;10.10;99.90;;;;;;5098044;28;20047;-62
2023/01/11 00:49:41;;;;;;;5.22;1.98;;;10.20;99.90;;;;;;5099122;28;20031;-62
2023/01/11 00:52:08;;;;;;;2.60;1.77;;;10.20;99.90;;;;;;5106442;28;20420;-62
2023/01/11 00:54:38;;;;;;;5.72;2.55;;;10.20;99.90;;;;;;5105431;28;20469;-62
2023/01/11 00:57:06;;;;;;;6.03;2.58;;;10.20;99.90;;;;;;5101409;28;20045;-62
2023/01/11 00:59:35;;;;;;;5.93;2.40;;;10.20;99.90;;;;;;5100243;28;20462;-62
2023/01/11 01:02:01;;;;;;;7.23;2.20;;;10.20;99.90;;;;;;5096176;28;20528;-62
2023/01/11 01:04:26;;;;;;;3.58;1.92;;;10.20;99.90;;;;;;5098720;28;20035;-62
2023/01/11 01:06:52;;;;;;;5.30;2.35;;;10.20;99.90;;;;;;5102140;28;20065;-62
2023/01/11 01:09:17;;;;;;;4.60;2.10;;;10.20;99.90;;;;;;5079777;28;20040;-62
2023/01/11 01:11:43;;;;;;;4.63;1.80;;;10.20;99.90;;;;;;5104226;28;20132;-65
2023/01/11 01:14:25;;;;;;;6.40;2.05;;;10.20;99.90;;;;;;5103139;28;20547;-62
2023/01/11 01:16:52;;;;;;;4.25;1.73;;;10.30;99.90;;;;;;5104810;28;20074;-62
2023/01/11 01:19:18;;;;;;;4.93;2.28;;;10.20;99.90;;;;;;5101388;28;20051;-62
2023/01/11 01:21:43;;;;;;;3.75;2.40;;;10.30;99.90;;;;;;5103247;28;20024;-62
2023/01/11 01:24:09;;;;;;;5.15;2.20;;;10.20;99.90;;;;;;5101927;28;20016;-64
2023/01/11 01:26:35;;;;;;;4.05;1.95;;;10.20;99.90;;;;;;5107324;28;20056;-64
2023/01/11 01:29:01;;;;;;;6.03;2.10;;;10.20;99.90;;;;;;5116594;28;20035;-62
2023/01/11 01:31:27;;;;;;;3.05;1.77;;;10.20;99.90;;;;;;5096908;28;20024;-62
2023/01/11 01:33:52;;;;;;;3.70;1.98;;;10.20;99.90;;;;;;5105457;28;20480;-62
2023/01/11 01:36:18;;;;;;;4.32;1.92;;;10.20;99.90;;;;;;5103760;28;20020;-62
2023/01/11 01:38:43;;;;;;;4.63;2.15;;;10.20;99.90;;;;;;5099034;28;20077;-62
2023/01/11 01:41:12;;;;;;;4.13;1.80;;;10.20;99.90;;;;;;5103362;28;20023;-62
2023/01/11 01:43:47;;;;;;;3.33;2.00;;;10.20;99.90;;;;;;5101671;28;20648;-62
2023/01/11 01:46:14;;;;;;;2.53;1.90;;;10.20;99.90;;;;;;5083247;28;20038;-62
2023/01/11 01:48:43;;;;;;;2.75;2.10;;;10.20;99.90;;;;;;5087209;28;20038;-62
2023/01/11 01:51:11;;;;;;;2.55;1.90;;;10.20;99.90;;;;;;5105630;28;20028;-62
2023/01/11 01:53:41;;;;;;;3.80;2.10;;;10.20;99.90;;;;;;5103123;28;20068;-63
2023/01/11 01:56:14;;;;;;;2.80;1.92;;;10.20;99.90;;;;;;5092523;28;20115;-63
2023/01/11 01:58:46;;;;;;;3.33;2.08;;;10.20;99.90;;;;;;5108517;28;20035;-63
2023/01/11 02:04:06;;;;;;;3.43;2.20;;;10.20;99.90;;;;;;5104102;28;20023;-65
2023/01/11 02:06:32;;;;;;;3.05;2.28;;;10.20;99.90;;;;;;5106460;28;20399;-64
2023/01/11 02:09:03;;;;;;;3.40;2.40;;;10.20;99.90;;;;;;5109968;28;20051;-64
2023/01/11 02:11:30;;;;;;;5.22;2.85;;;10.20;99.90;;;;;;5115019;27;20440;-63
2023/01/11 02:13:58;;;;;;;3.88;2.10;;;10.20;99.90;;;;;;5106994;28;20072;-63
2023/01/11 02:16:23;;;;;;;4.13;2.90;;;10.20;99.90;;;;;;5098317;28;20028;-64
2023/01/11 02:18:49;;;;;;;4.82;2.50;;;10.30;99.90;;;;;;5107271;27;20034;-64
2023/01/11 02:22:04;;;;;;;3.63;2.53;;;10.30;99.90;;;;;;5099851;28;20036;-64
2023/01/11 02:24:53;;;;;;;3.60;2.55;;;10.30;99.90;;;;;;5109027;28;20020;-64
2023/01/11 02:27:37;;;;;;;3.42;2.50;;;10.30;99.90;;;;;;5102703;28;20348;-64
2023/01/11 02:30:23;;;;;;;4.70;2.63;;;10.30;99.90;;;;;;5085482;28;20035;-64
2023/01/11 02:33:21;;;;;;;2.70;2.50;;;10.30;99.90;;;;;;5109310;28;20126;-64
2023/01/11 02:35:56;;;;;;;2.65;2.42;;;10.40;99.90;;;;;;5099086;28;20024;-64
2023/01/11 02:38:29;;;;;;;3.20;2.90;;;10.40;99.90;;;;;;5102946;28;20024;-63
2023/01/11 02:47:47;;;;;;;4.15;2.80;;;10.50;99.90;;;;;;4990868;28;20142;-65
2023/01/11 02:50:36;;;;;;;2.77;2.40;;;10.50;99.90;;;;;;5101386;28;20489;-64
2023/01/11 02:53:28;;;;;;;3.50;2.33;;;10.50;99.90;;;;;;5122453;27;20111;-64
2023/01/11 02:55:58;;;;;;;3.35;2.75;;;10.60;99.90;;;;;;5109781;28;20131;-66
2023/01/11 02:58:28;;;;;;;3.03;2.40;;;10.50;99.90;;;;;;5108613;27;20023;-64
2023/01/11 03:00:54;;;;;;;3.28;2.63;;;10.60;99.90;;;;;;5085613;28;20028;-65
2023/01/11 03:03:29;;;;;;;4.18;2.63;;;10.60;99.90;;;;;;5117329;27;20408;-64
2023/01/11 03:06:12;;;;;;;3.10;2.30;;;10.60;99.90;;;;;;5108354;27;20396;-65
2023/01/11 03:08:58;;;;;;;3.10;2.85;;;10.70;99.90;;;;;;5092648;28;20048;-65
2023/01/11 03:14:57;;;;;;;3.03;2.55;;;10.70;99.90;;;;;;5090772;28;20504;-64
2023/01/11 03:17:59;;;;;;;3.33;2.28;;;10.80;99.90;;;;;;5078541;28;20408;-64
2023/01/11 03:20:36;;;;;;;3.90;2.20;;;10.80;99.90;;;;;;5090720;28;20024;-64
2023/01/11 03:23:14;;;;;;;2.30;2.10;;;10.80;99.90;;;;;;5073677;28;20042;-64
2023/01/11 03:26:20;;;;;;;4.40;2.17;;;10.80;99.90;;;;;;5092304;28;20379;-64
2023/01/11 03:29:17;;;;;;;3.08;2.03;;;10.90;99.90;;;;;;5074037;28;20042;-64
2023/01/11 03:32:06;;;;;;;4.95;2.47;;;10.90;99.90;;;;;;5092488;28;20028;-64
2023/01/11 03:35:00;;;;;;;3.10;2.80;;;10.90;99.90;;;;;;5086335;28;20058;-64
2023/01/11 03:37:38;;;;;;;1.98;1.77;;;10.90;99.90;;;;;;5089425;28;20047;-64
2023/01/11 03:40:22;;;;;;;2.05;1.80;;;10.90;99.90;;;;;;5089209;28;20170;-64
2023/01/11 03:43:11;;;;;;;2.55;1.80;;;11.00;99.90;;;;;;5088785;28;20499;-64
2023/01/11 03:45:51;;;;;;;3.42;2.00;;;11.00;99.90;;;;;;5089211;28;20020;-64
2023/01/11 03:48:31;;;;;;;2.20;2.00;;;11.00;99.90;;;;;;5088863;28;20565;-64
2023/01/11 03:50:59;;;;;;;2.78;2.08;;;11.00;99.90;;;;;;5071605;28;20028;-64
2023/01/11 03:53:26;;;;;;;2.40;1.90;;;11.00;99.90;;;;;;5089244;28;20496;-64
2023/01/11 03:55:56;;;;;;;2.83;1.75;;;11.10;99.90;;;;;;5096415;28;20036;-64
2023/01/11 03:58:24;;;;;;;2.42;1.75;;;11.10;99.90;;;;;;5081145;28;20031;-64
2023/01/11 04:00:50;;;;;;;2.00;1.58;;;11.10;99.90;;;;;;5089215;28;20020;-64
2023/01/11 04:03:16;;;;;;;1.90;1.60;;;11.10;99.90;;;;;;5089133;28;20031;-64
2023/01/11 04:05:46;;;;;;;1.88;1.63;;;11.20;99.90;;;;;;5088605;28;20027;-64
2023/01/11 04:08:11;;;;;;;2.10;1.63;;;11.20;99.90;;;;;;5091079;28;20055;-64
2023/01/11 04:10:38;;;;;;;3.10;1.90;;;11.20;99.90;;;;;;5091356;28;20028;-64
2023/01/11 04:13:03;;;;;;;3.00;1.80;;;11.20;99.90;;;;;;5088616;28;20052;-64
2023/01/11 04:15:30;;;;;;;2.65;1.88;;;11.20;99.90;;;;;;5092234;28;20062;-64
2023/01/11 04:18:03;;;;;;;2.88;2.38;;;11.30;99.90;;;;;;5091445;28;20024;-64
2023/01/11 04:20:30;;;;;;;2.85;2.00;;;11.30;99.90;;;;;;5094279;28;20045;-64
2023/01/11 04:22:55;;;;;;;3.42;2.25;;;11.30;99.90;;;;;;5088624;28;20028;-64
2023/01/11 04:25:21;;;;;;;2.70;2.40;;;11.30;99.90;;;;;;5092345;28;20016;-64
2023/01/11 04:27:46;;;;;;;2.13;1.80;;;11.30;99.90;;;;;;5088179;28;20020;-64
2023/01/11 04:30:12;;;;;;;2.42;2.22;;;11.30;99.90;;;;;;5088022;28;20062;-64
2023/01/11 04:32:38;;;;;;;4.05;2.80;;;11.40;99.90;;;;;;5070214;28;20497;-64
2023/01/11 04:35:04;;;;;;;3.70;3.00;;;11.40;99.90;;;;;;5071316;28;20042;-64
2023/01/11 04:37:29;;;;;;;2.97;2.53;;;11.40;99.90;;;;;;5091342;28;20024;-64
2023/01/11 04:39:54;;;;;;;2.67;2.47;;;11.40;99.90;;;;;;5075309;28;20032;-64
2023/01/11 04:42:20;;;;;;;2.88;2.47;;;11.40;99.90;;;;;;5076938;28;20055;-64
2023/01/11 04:44:50;;;;;;;2.55;2.20;;;11.40;99.90;;;;;;5088861;28;20031;-64
2023/01/11 04:47:18;;;;;;;2.45;2.10;;;11.40;99.90;;;;;;5069805;28;20514;-64
2023/01/11 04:49:44;;;;;;;1.92;1.60;;;11.40;99.90;;;;;;5071935;28;20036;-64
2023/01/11 04:52:11;;;;;;;2.00;1.70;;;11.40;99.90;;;;;;5088596;28;20020;-64
2023/01/11 04:54:37;;;;;;;1.83;1.42;;;11.40;99.90;;;;;;5088439;28;20032;-64
2023/01/11 04:57:02;;;;;;;1.92;1.20;;;11.50;99.90;;;;;;5088358;28;20043;-64
2023/01/11 04:59:28;;;;;;;3.33;1.83;;;11.50;99.90;;;;;;5092678;28;20028;-64
2023/01/11 05:01:54;;;;;;;2.10;1.90;;;11.50;99.90;;;;;;5089667;28;20573;-64
2023/01/11 05:04:19;;;;;;;2.38;1.85;;;11.50;99.90;;;;;;5087274;28;20517;-64
2023/01/11 05:06:45;;;;;;;2.22;1.90;;;11.50;99.90;;;;;;5088241;28;20044;-64
2023/01/11 05:09:13;;;;;;;3.45;2.13;;;11.50;99.90;;;;;;5089788;28;20143;-63
2023/01/11 05:11:39;;;;;;;4.53;3.30;;;11.50;99.90;;;;;;5097598;28;20106;-64
2023/01/11 05:14:04;;;;;;;3.42;3.08;;;11.50;99.90;;;;;;5090598;28;20434;-64
2023/01/11 05:16:30;;;;;;;4.05;3.42;;;11.60;99.90;;;;;;5087486;28;20020;-65
2023/01/11 05:18:58;;;;;;;5.45;3.65;;;11.60;99.90;;;;;;5090605;28;20032;-64
2023/01/11 05:21:26;;;;;;;4.72;3.85;;;11.60;99.90;;;;;;5087639;28;20016;-64
2023/01/11 05:23:52;;;;;;;5.03;3.90;;;11.60;99.90;;;;;;5089639;28;20512;-64
2023/01/11 05:26:25;;;;;;;4.03;3.63;;;11.60;99.90;;;;;;5094986;28;20024;-64
2023/01/11 05:28:51;;;;;;;7.40;3.78;;;11.60;99.90;;;;;;5091970;28;20132;-64
2023/01/11 05:31:17;;;;;;;3.90;3.50;;;11.60;99.90;;;;;;5094222;28;20112;-64
2023/01/11 05:33:43;;;;;;;5.53;3.95;;;11.60;99.90;;;;;;5093632;27;20059;-64
2023/01/11 05:36:14;;;;;;;8.25;5.57;;;11.70;99.90;;;;;;5092821;28;20079;-63
2023/01/11 05:38:39;;;;;;;5.25;4.75;;;11.70;99.90;;;;;;5076296;28;20428;-64
2023/01/11 05:41:08;;;;;;;6.70;5.35;;;11.70;99.90;;;;;;5100077;28;20024;-64
2023/01/11 05:45:27;;;;;;;7.15;5.30;;;11.70;99.90;;;;;;5093440;28;20027;-64
2023/01/11 05:46:24;;;;;;;8.05;5.95;;;11.70;99.90;;;;;;5091447;28;20059;-63
2023/01/11 05:48:49;;;;;;;6.90;5.65;;;11.70;99.90;;;;;;5096015;28;20032;-64
2023/01/11 05:51:16;;;;;;;10.00;5.68;;;11.70;99.90;;;;;;5094000;28;20028;-64
2023/01/11 05:53:42;;;;;;;12.50;5.47;;;11.70;99.90;;;;;;5098222;28;20036;-64
2023/01/11 05:56:07;;;;;;;7.82;5.50;;;11.70;99.90;;;;;;5091610;28;20024;-64
2023/01/11 05:58:33;;;;;;;14.70;5.72;;;11.70;99.90;;;;;;5091143;28;20605;-64
2023/01/11 06:00:58;;;;;;;10.85;5.32;;;11.60;99.90;;;;;;5094254;28;20036;-64
2023/01/11 06:03:25;;;;;;;12.43;6.53;;;11.60;99.90;;;;;;5094458;28;20028;-64
2023/01/11 06:05:51;;;;;;;9.25;5.72;;;11.70;99.90;;;;;;5092787;28;20060;-64
2023/01/11 06:08:18;;;;;;;16.42;6.18;;;11.60;99.90;;;;;;5096659;28;20513;-64
2023/01/11 06:10:50;;;;;;;12.10;4.90;;;11.60;99.90;;;;;;5096128;28;20047;-64
2023/01/11 06:13:28;;;;;;;14.48;3.97;;;11.60;99.90;;;;;;5072769;28;20028;-64
2023/01/11 06:16:01;;;;;;;17.45;3.88;;;11.60;99.90;;;;;;5090718;28;20036;-63
2023/01/11 06:18:29;;;;;;;15.57;3.42;;;11.60;99.90;;;;;;5091257;28;20027;-64
2023/01/11 06:20:55;;;;;;;10.60;2.88;;;11.60;99.90;;;;;;5075008;28;20394;-65
2023/01/11 06:23:22;;;;;;;11.25;3.97;;;11.60;99.90;;;;;;5096749;28;20030;-65
2023/01/11 06:25:47;;;;;;;8.70;2.13;;;11.60;99.90;;;;;;5090379;28;20097;-65
2023/01/11 06:28:13;;;;;;;16.98;2.85;;;11.50;99.90;;;;;;5077505;28;20481;-65
2023/01/11 06:30:39;;;;;;;14.35;2.47;;;11.50;99.90;;;;;;5080743;28;20492;-65
2023/01/11 06:33:05;;;;;;;21.20;2.45;;;11.50;99.90;;;;;;5090690;28;20405;-65
2023/01/11 06:35:39;;;;;;;16.35;2.38;;;11.50;99.90;;;;;;5071149;28;20044;-65
2023/01/11 06:38:06;;;;;;;11.63;1.98;;;11.50;99.90;;;;;;5093922;28;20388;-65
2023/01/11 06:40:32;;;;;;;14.32;3.25;;;11.40;99.90;;;;;;5090620;28;20535;-65
2023/01/11 06:42:58;;;;;;;12.45;2.20;;;11.40;99.90;;;;;;5101871;28;20027;-65
2023/01/11 06:45:23;;;;;;;18.48;3.03;;;11.30;99.90;;;;;;5111457;28;20044;-65
2023/01/11 06:47:49;;;;;;;15.10;2.10;;;11.30;99.90;;;;;;5101758;28;20672;-65
2023/01/11 06:50:15;;;;;;;8.55;1.80;;;11.30;99.90;;;;;;5108641;28;20511;-65
2023/01/11 06:52:41;;;;;;;12.13;1.88;;;11.30;99.90;;;;;;5113547;28;20016;-64
2023/01/11 06:55:07;;;;;;;12.43;2.72;;;11.30;99.90;;;;;;5113670;28;20024;-65
2023/01/11 06:57:32;;;;;;;7.43;1.80;;;11.20;99.90;;;;;;5081368;28;20047;-65
2023/01/11 06:59:58;;;;;;;15.70;2.50;;;11.20;99.90;;;;;;5099183;27;20024;-65
2023/01/11 07:02:23;;;;;;;13.63;2.22;;;11.20;99.90;;;;;;5111698;28;20050;-65
2023/01/11 07:04:49;;;;;;;13.48;2.17;;;11.20;99.90;;;;;;5105967;28;20024;-64
2023/01/11 07:07:15;;;;;;;13.40;2.50;;;11.10;99.90;;;;;;5093027;28;20024;-65
2023/01/11 07:09:40;;;;;;;12.25;1.77;;;11.10;99.90;;;;;;5096985;28;20083;-65
2023/01/11 07:12:06;;;;;;;11.68;2.13;;;11.10;99.90;;;;;;5092588;28;20078;-65
2023/01/11 07:14:31;;;;;;;10.77;1.67;;;11.10;99.90;;;;;;5093087;28;20084;-65
2023/01/11 07:16:56;;;;;;;11.57;2.20;;;11.00;99.90;;;;;;5103938;28;20483;-65
2023/01/11 07:19:22;;;;;;;10.48;1.92;;;11.00;99.90;;;;;;5112883;28;20016;-65
2023/01/11 07:21:47;;;;;;;11.85;2.25;;;10.90;99.90;;;;;;5110228;28;20024;-65
2023/01/11 07:24:13;;;;;;;15.25;2.70;;;10.90;99.90;;;;;;5107759;28;20024;-64
2023/01/11 07:26:40;;;;;;;16.30;2.97;;;10.90;99.90;;;;;;5106492;28;20047;-65
2023/01/11 07:29:07;;;;;;;10.35;2.25;;;10.90;99.90;;;;;;5104401;28;20031;-65
2023/01/11 07:31:32;;;;;;;10.88;2.05;;;10.90;99.90;;;;;;5082849;28;20513;-65
2023/01/11 07:33:58;;;;;;;12.23;1.45;;;10.80;99.90;;;;;;5066486;28;20030;-65
2023/01/11 07:36:23;;;;;;;14.02;1.85;;;10.80;99.90;;;;;;5104105;28;20032;-65
2023/01/11 07:38:49;;;;;;;13.35;1.85;;;10.80;99.90;;;;;;5099622;28;20012;-65
2023/01/11 07:43:58;;;;;;;9.63;1.88;;;10.80;99.90;;;;;;5092957;28;20161;-65
2023/01/11 07:46:24;;;;;;;13.20;1.95;;;10.80;99.90;;;;;;5092711;28;20024;-65
2023/01/11 07:48:49;;;;;;;16.15;2.58;;;10.80;99.90;;;;;;5113319;28;20023;-64
2023/01/11 07:51:19;;;;;;;15.38;2.50;;;10.70;99.90;;;;;;5109267;28;20088;-64
2023/01/11 07:53:45;;;;;;;12.73;1.80;;;10.70;99.90;;;;;;5108191;28;20019;-65
2023/01/11 07:56:11;;;;;;;17.08;3.13;;;10.70;99.90;;;;;;5109760;28;20362;-64
2023/01/11 07:58:36;;;;;;;8.50;1.80;;;10.70;99.90;;;;;;5104494;28;20039;-65
2023/01/11 08:01:02;;;;;;;8.50;1.55;;;10.70;99.90;;;;;;5106538;28;20473;-65
2023/01/11 08:03:27;;;;;;;12.02;1.95;;;10.70;99.90;;;;;;5095896;27;20095;-64
2023/01/11 08:05:53;;;;;;;14.38;2.65;;;10.70;99.90;;;;;;5095361;28;20024;-64
2023/01/11 08:08:19;;;;;;;13.93;2.13;;;10.70;99.90;;;;;;5093131;28;20044;-64
2023/01/11 08:10:45;;;;;;;12.80;1.90;;;10.60;99.90;;;;;;5081411;28;20081;-64
2023/01/11 08:15:58;;;;;;;14.07;2.70;;;10.60;99.90;;;;;;5101426;28;20050;-65
2023/01/11 08:18:24;;;;;;;10.73;1.60;;;10.50;99.90;;;;;;5103453;28;20367;-65
2023/01/11 08:20:52;;;;;;;11.23;1.92;;;10.50;99.90;;;;;;5100095;28;20035;-65
2023/01/11 08:23:18;;;;;;;11.05;1.95;;;10.50;99.90;;;;;;5104855;28;20019;-65
2023/01/11 08:25:44;;;;;;;12.45;2.55;;;10.50;99.90;;;;;;5102718;28;20032;-65
2023/01/11 08:28:10;;;;;;;13.85;1.90;;;10.50;99.90;;;;;;5102409;28;20019;-65
2023/01/11 08:30:37;;;;;;;17.00;2.50;;;10.40;99.90;;;;;;5104249;27;20024;-65
2023/01/11 08:33:04;;;;;;;16.48;3.35;;;10.40;99.90;;;;;;5107773;28;20034;-65
2023/01/11 08:35:30;;;;;;;10.50;1.92;;;10.40;99.90;;;;;;5104569;28;20020;-65
2023/01/11 08:37:56;;;;;;;16.98;2.80;;;10.40;99.90;;;;;;5111272;28;20080;-65
2023/01/11 08:40:21;;;;;;;11.65;1.88;;;10.40;99.90;;;;;;5109479;28;20439;-65
2023/01/11 08:42:47;;;;;;;12.52;2.17;;;10.40;99.90;;;;;;5090810;28;20015;-65
2023/01/11 08:45:13;;;;;;;15.00;2.50;;;10.40;99.90;;;;;;5108636;28;20026;-65
2023/01/11 08:47:38;;;;;;;13.15;1.95;;;10.30;99.90;;;;;;5107935;28;20028;-65
2023/01/11 08:50:04;;;;;;;12.95;2.00;;;10.30;99.90;;;;;;5110046;28;20125;-65
2023/01/11 08:52:30;;;;;;;12.77;2.25;;;10.30;99.90;;;;;;5092735;28;20107;-65
2023/01/11 08:54:55;;;;;;;14.93;2.40;;;10.30;99.90;;;;;;5089618;28;20116;-65
2023/01/11 08:57:21;;;;;;;15.07;2.35;;;10.30;99.90;;;;;;5110273;28;20063;-65
2023/01/11 08:59:46;;;;;;;11.75;2.10;;;10.30;99.90;;;;;;5113192;28;20020;-65
2023/01/11 09:02:12;;;;;;;12.43;1.70;;;10.30;99.90;;;;;;5113288;28;20557;-65
2023/01/11 09:04:37;;;;;;;12.90;2.17;;;10.30;99.90;;;;;;5112105;28;20019;-65
2023/01/11 09:07:03;;;;;;;11.85;1.75;;;10.30;99.90;;;;;;5125510;27;20019;-65
2023/01/11 09:09:29;;;;;;;12.43;2.22;;;10.30;99.90;;;;;;5113828;28;20043;-65
2023/01/11 09:11:59;;;;;;;14.57;2.40;;;10.30;99.90;;;;;;5098718;28;20028;-65
2023/01/11 09:14:26;;;;;;;12.68;1.58;;;10.30;99.90;;;;;;5116007;28;20112;-65
2023/01/11 09:16:52;;;;;;;12.10;2.28;;;10.20;99.90;;;;;;5088433;28;20024;-64
2023/01/11 09:19:18;;;;;;;11.15;1.50;;;10.20;99.90;;;;;;5077892;28;20039;-65
2023/01/11 09:21:45;;;;;;;9.95;2.83;;;10.20;99.90;;;;;;5078248;28;20470;-65
2023/01/11 09:24:11;;;;;;;12.45;2.17;;;10.20;99.90;;;;;;5099756;28;20099;-64
2023/01/11 09:26:37;;;;;;;13.40;2.92;;;10.20;99.90;;;;;;5105665;28;20544;-65
2023/01/11 09:29:03;;;;;;;10.70;2.47;;;10.10;99.90;;;;;;5108305;28;20027;-65
2023/01/11 09:31:28;;;;;;;10.57;2.40;;;10.10;99.90;;;;;;5113615;28;20020;-65
2023/01/11 09:33:54;;;;;;;17.55;2.45;;;10.10;99.90;;;;;;5073508;28;20358;-65
2023/01/11 09:36:20;;;;;;;12.57;2.30;;;10.10;99.90;;;;;;5093725;28;20112;-65
2023/01/11 09:38:49;;;;;;;13.18;2.78;;;10.00;99.90;;;;;;5111896;28;20409;-65
2023/01/11 09:41:32;;;;;;;13.25;2.13;;;10.00;99.90;;;;;;5093956;28;20017;-65
2023/01/11 09:44:15;;;;;;;11.52;2.20;;;10.00;99.90;;;;;;5111652;28;20024;-65
2023/01/11 09:46:45;;;;;;;10.48;2.10;;;10.00;99.90;;;;;;5109245;28;20104;-65
2023/01/11 09:49:41;;;;;;;;;;;9.90;99.90;;;;;;5114858;28;20110;-65
2023/01/11 09:52:37;;;;;;;12.07;2.25;;;9.90;99.90;;;;;;5094004;28;20280;-64
2023/01/11 09:55:03;;;;;;;14.68;2.08;;;9.90;99.90;;;;;;5109572;28;20101;-64
2023/01/11 09:57:58;;;;;;;15.38;2.05;;;9.90;99.90;;;;;;5108888;28;20027;-65
2023/01/11 10:00:40;;;;;;;15.23;2.40;;;10.10;99.90;;;;;;5085923;28;20024;-65
2023/01/11 10:03:28;;;;;;;17.70;2.78;;;10.30;99.90;;;;;;5109461;28;20020;-65
2023/01/11 10:06:10;;;;;;;12.63;3.47;;;10.50;99.90;;;;;;5112306;28;20026;-64
2023/01/11 10:08:58;;;;;;;14.50;2.65;;;10.90;99.90;;;;;;5113184;28;20423;-65
2023/01/11 10:11:40;;;;;;;15.75;3.83;;;11.30;99.90;;;;;;5108812;28;20015;-65
2023/01/11 10:14:34;;;;;;;14.90;2.50;;;11.70;99.90;;;;;;5110104;28;20101;-65
2023/01/11 10:17:24;;;;;;;20.58;2.30;;;11.90;99.90;;;;;;5082708;28;20077;-65
2023/01/11 10:19:56;;;;;;;;;;;12.10;99.90;;;;;;5102331;28;20027;-65
2023/01/11 10:22:35;;;;;;;10.30;2.22;;;12.40;99.90;;;;;;5109404;28;20273;-65
2023/01/11 10:25:15;;;;;;;11.53;2.47;;;12.80;99.90;;;;;;5114005;28;20011;-65
2023/01/11 10:27:54;;;;;;;;;;;13.40;99.90;;;;;;5108702;28;20112;-65
2023/01/11 10:33:12;;;;;;;10.63;2.08;;;14.00;99.90;;;;;;5097483;28;20028;-65
2023/01/11 10:38:56;;;;;;;13.27;2.40;;;14.10;99.90;;;;;;5097318;28;20024;-65
2023/01/11 10:41:37;;;;;;;18.13;2.40;;;14.40;99.90;;;;;;5098519;28;20029;-65
2023/01/11 10:44:09;;;;;;;7.70;1.45;;;14.70;99.90;;;;;;5110339;28;20020;-66
2023/01/11 10:46:45;;;;;;;10.27;2.28;;;14.80;99.90;;;;;;5104976;28;20449;-65
2023/01/11 10:49:33;;;;;;;16.02;3.60;;;14.80;99.90;;;;;;5094403;28;20107;-66
2023/01/11 10:52:23;;;;;;;9.40;2.33;;;14.70;99.90;;;;;;5111602;28;20049;-65
2023/01/11 10:54:53;;;;;;;11.55;2.47;;;14.60;99.90;;;;;;5090573;28;20020;-65
2023/01/11 10:57:28;;;;;;;9.27;2.45;;;14.70;99.90;;;;;;5076391;28;20024;-62
2023/01/11 11:00:12;;;;;;;13.85;2.35;;;14.80;99.90;;;;;;5122963;27;20017;-65
2023/01/11 11:03:10;;;;;;;8.45;1.85;;;15.00;99.90;;;;;;5105839;28;20015;-65
2023/01/11 11:05:53;;;;;;;11.50;2.35;;;15.30;99.90;;;;;;5105028;28;20030;-65
2023/01/11 11:08:45;;;;;;;11.77;2.22;;;15.50;98.80;;;;;;5093538;28;20114;-65
2023/01/11 11:11:19;;;;;;;11.77;2.00;;;15.60;97.20;;;;;;5105568;28;20011;-65
2023/01/11 11:13:54;;;;;;;12.32;2.42;;;15.80;97.00;;;;;;5093606;28;20035;-65
2023/01/11 11:16:22;;;;;;;10.15;2.05;;;15.60;97.00;;;;;;5105718;28;20740;-65
2023/01/11 11:18:49;;;;;;;15.57;2.78;;;15.70;97.50;;;;;;5097989;28;20024;-65
2023/01/11 11:21:28;;;;;;;8.38;1.77;;;16.00;96.80;;;;;;5080721;28;20384;-65
2023/01/11 11:23:59;;;;;;;10.55;1.90;;;16.40;95.50;;;;;;5093421;28;20020;-66
2023/01/11 11:26:36;;;;;;;9.82;1.90;;;16.90;94.60;;;;;;5093099;28;20052;-66
2023/01/11 11:29:09;;;;;;;14.02;2.30;;;17.50;93.40;;;;;;5096499;28;20485;-63
2023/01/11 11:31:41;;;;;;;12.25;2.53;;;17.90;91.30;;;;;;5110544;28;20400;-63
2023/01/11 11:34:15;;;;;;;10.80;2.22;;;18.00;90.20;;;;;;5094282;27;20047;-64
2023/01/11 11:36:46;;;;;;;10.25;3.38;;;18.00;88.40;;;;;;5105524;28;20070;-64
2023/01/11 11:39:21;;;;;;;13.10;1.90;;;18.20;87.20;;;;;;5086087;28;20023;-63
2023/01/11 11:41:50;;;;;;;11.10;1.92;;;18.00;84.20;;;;;;5109166;28;20023;-63
2023/01/11 11:44:18;;;;;;;10.82;2.00;;;17.80;84.00;;;;;;5110870;28;20099;-63
2023/01/11 11:46:56;;;;;;;9.93;2.53;;;17.60;83.20;;;;;;5100024;28;20392;-63
2023/01/11 11:49:22;;;;;;;8.85;1.92;;;17.30;84.30;;;;;;5109424;28;20495;-64
2023/01/11 11:51:49;;;;;;;11.68;2.60;;;17.70;84.80;;;;;;5108508;27;20031;-63
2023/01/11 11:54:20;;;;;;;5.53;1.33;;;18.10;82.80;;;;;;5092593;28;20020;-64
2023/01/11 11:56:46;;;;;;;9.60;2.08;;;18.70;81.00;;;;;;5079882;28;20035;-64
2023/01/11 11:59:17;;;;;;;8.23;2.05;;;19.40;78.30;;;;;;5076604;28;20477;-64
2023/01/11 12:01:45;;;;;;;8.18;2.00;;;20.30;76.10;;;;;;5100013;28;20052;-64
2023/01/11 12:04:28;;;;;;;11.93;2.00;;;21.00;71.60;;;;;;5107046;28;20513;-64
2023/01/11 12:07:18;;;;;;;12.25;2.80;;;20.70;69.50;;;;;;5094855;28;20036;-64
2023/01/11 12:09:59;;;;;;;9.73;2.22;;;19.90;70.60;;;;;;5098344;28;20043;-64
2023/01/11 12:12:24;;;;;;;9.95;2.38;;;19.50;71.00;;;;;;5096248;28;20015;-64
2023/01/11 12:15:14;;;;;;;10.05;2.00;;;18.90;72.00;;;;;;5093723;28;20367;-64
2023/01/11 12:17:40;;;;;;;;;;;19.20;73.30;;;;;;5103915;28;20493;-64
2023/01/11 12:20:31;;;;;;;13.35;2.83;;;19.30;70.90;;;;;;5083504;28;19914;-64
2023/01/11 12:23:17;;;;;;;10.32;2.00;;;19.20;70.30;;;;;;5084193;28;20054;-64
2023/01/11 12:26:08;;;;;;;10.50;2.78;;;19.40;71.60;;;;;;5103569;28;20049;-64
2023/01/11 12:28:55;;;;;;;10.00;1.90;;;19.00;70.90;;;;;;5097146;28;20106;-64
2023/01/11 12:31:42;;;;;;;9.68;2.15;;;18.50;72.30;;;;;;5093484;28;20129;-64
2023/01/11 12:34:16;;;;;;;10.45;2.10;;;18.30;73.40;;;;;;5105868;28;20038;-64
2023/01/11 12:37:07;;;;;;;10.43;1.98;;;17.90;74.00;;;;;;5105030;28;20084;-65
2023/01/11 12:39:51;;;;;;;9.48;2.00;;;17.50;75.20;;;;;;5105333;28;20020;-65
2023/01/11 12:42:50;;;;;;;12.00;1.98;;;17.10;76.20;;;;;;5076967;28;20480;-64
2023/01/11 12:45:43;;;;;;;11.93;2.35;;;16.80;77.40;;;;;;5101476;28;20055;-64
2023/01/11 12:48:27;;;;;;;7.05;1.73;;;16.90;75.50;;;;;;5109388;28;20039;-64
2023/01/11 12:51:11;;;;;;;9.93;2.13;;;17.10;75.30;;;;;;5111561;28;20088;-64
2023/01/11 12:54:03;;;;;;;13.07;3.22;;;17.40;73.70;;;;;;5106364;28;20027;-65
2023/01/11 12:56:38;;;;;;;10.98;2.53;;;17.60;72.30;;;;;;5110696;28;20108;-64
2023/01/11 12:59:14;;;;;;;9.75;2.53;;;17.70;71.10;;;;;;5111193;28;20493;-65
2023/01/11 13:02:10;;;;;;;8.00;1.95;;;17.20;70.60;;;;;;5107998;28;20099;-64
2023/01/11 13:05:02;;;;;;;14.85;2.78;;;16.60;72.00;;;;;;5088841;28;20024;-65
2023/01/11 13:08:00;;;;;;;9.63;1.88;;;16.00;74.60;;;;;;5109344;28;20484;-64
2023/01/11 13:10:55;;;;;;;13.30;2.42;;;15.60;75.70;;;;;;5095821;28;20411;-64
2023/01/11 13:13:51;;;;;;;14.50;2.55;;;15.30;76.40;;;;;;5078631;28;20058;-64
2023/01/11 13:16:29;;;;;;;12.80;3.05;;;15.20;77.20;;;;;;5096550;28;20552;-64
2023/01/11 13:19:04;;;;;;;11.85;2.33;;;15.00;78.30;;;;;;5110509;28;20034;-64
2023/01/11 13:21:52;;;;;;;13.30;2.63;;;14.80;79.20;;;;;;5091768;28;20087;-64
2023/01/11 13:24:31;;;;;;;13.40;2.33;;;15.10;78.70;;;;;;5088596;28;20020;-64
2023/01/11 13:27:03;;;;;;;9.88;2.92;;;15.40;78.20;;;;;;5091660;28;20526;-64
2023/01/11 13:29:36;;;;;;;10.80;2.42;;;15.40;77.40;;;;;;5090528;28;20051;-64
2023/01/11 13:32:06;;;;;;;12.55;2.70;;;15.70;77.50;;;;;;5090703;28;20032;-64
2023/01/11 13:34:40;;;;;;;11.45;1.88;;;15.60;77.10;;;;;;5093285;28;20032;-65
2023/01/11 13:37:21;;;;;;;12.32;2.17;;;15.60;77.90;;;;;;5088365;28;20032;-64
2023/01/11 13:39:57;;;;;;;11.27;2.53;;;15.30;77.10;;;;;;5087872;28;20081;-64